Time;durP1;ratioP1;P1;durP2;ratioP2;P2;SDS_P1;SDS_P2;PMS_P1;PMS_P2;Temp;Humidity;BMP_temperature;BMP_pressure;BME280_temperature;BME280_humidity;BME280_pressure;Samples;Min_cycle;Max_cycle;Signal;HPM_P1;HPM_P2
2021/12/30 00:00:18;;;;;;;47.85;28.13;;;10.10;99.90;;;;;;5023434;28;20197;-83
2021/12/30 00:02:45;;;;;;;43.15;24.70;;;10.00;99.90;;;;;;5029220;28;20201;-81
2021/12/30 00:05:13;;;;;;;44.28;25.85;;;10.10;99.90;;;;;;5024695;28;20256;-83
2021/12/30 00:07:40;;;;;;;44.50;23.67;;;10.10;99.90;;;;;;5018756;28;20228;-82
2021/12/30 00:10:08;;;;;;;40.72;22.67;;;10.10;99.90;;;;;;5022486;28;20316;-82
2021/12/30 00:12:35;;;;;;;40.83;21.45;;;10.00;99.90;;;;;;5028075;28;20641;-82
2021/12/30 00:15:04;;;;;;;51.92;25.67;;;10.00;99.90;;;;;;5028390;28;20898;-83
2021/12/30 00:17:31;;;;;;;36.25;21.45;;;9.80;99.90;;;;;;5022062;28;20205;-83
2021/12/30 00:19:59;;;;;;;42.65;22.85;;;10.00;99.90;;;;;;5029474;28;20229;-83
2021/12/30 00:22:26;;;;;;;31.23;20.55;;;10.00;99.90;;;;;;5019667;28;20276;-83
2021/12/30 00:24:53;;;;;;;32.63;21.70;;;10.10;99.90;;;;;;5025413;28;20259;-83
2021/12/30 00:27:20;;;;;;;32.30;19.17;;;10.00;99.90;;;;;;5020747;28;20267;-83
2021/12/30 00:29:47;;;;;;;46.10;19.85;;;10.00;99.90;;;;;;5028534;28;20224;-81
2021/12/30 00:32:15;;;;;;;42.70;19.83;;;10.10;99.90;;;;;;5020847;28;20291;-82
2021/12/30 00:34:42;;;;;;;33.17;17.42;;;10.10;99.90;;;;;;5019339;28;20227;-82
2021/12/30 00:37:09;;;;;;;33.72;21.30;;;10.10;99.90;;;;;;5019854;28;20211;-83
2021/12/30 00:39:36;;;;;;;34.45;17.02;;;10.20;99.90;;;;;;5022560;28;20300;-82
2021/12/30 00:42:03;;;;;;;51.08;21.83;;;10.10;99.90;;;;;;5020695;28;20265;-82
2021/12/30 00:44:30;;;;;;;41.33;19.70;;;10.00;99.90;;;;;;5019809;28;20308;-82
2021/12/30 00:46:58;;;;;;;34.03;17.02;;;10.00;99.90;;;;;;5019750;28;20309;-82
2021/12/30 00:49:27;;;;;;;30.83;17.63;;;10.00;99.90;;;;;;5019877;28;20208;-83
2021/12/30 00:51:54;;;;;;;29.90;17.23;;;10.00;99.90;;;;;;5024604;28;20227;-82
2021/12/30 00:54:21;;;;;;;33.67;17.38;;;10.00;99.90;;;;;;5021208;28;20328;-82
2021/12/30 00:56:48;;;;;;;30.75;16.55;;;10.00;99.90;;;;;;5018597;28;20203;-82
2021/12/30 00:59:14;;;;;;;27.95;17.48;;;9.90;99.90;;;;;;5017854;28;20304;-82
2021/12/30 01:01:41;;;;;;;30.88;16.48;;;9.90;99.90;;;;;;5021346;28;20205;-82
2021/12/30 01:04:08;;;;;;;30.00;16.00;;;9.80;99.90;;;;;;5018506;28;20211;-81
2021/12/30 01:06:37;;;;;;;37.20;18.15;;;9.80;99.90;;;;;;5020452;28;20209;-81
2021/12/30 01:09:05;;;;;;;40.45;17.88;;;9.80;99.90;;;;;;5022226;28;20316;-81
2021/12/30 01:11:33;;;;;;;28.83;16.63;;;9.80;99.90;;;;;;5022756;28;20210;-81
2021/12/30 01:14:04;;;;;;;36.53;15.57;;;9.80;99.90;;;;;;5023372;28;20240;-83
2021/12/30 01:16:35;;;;;;;32.20;17.55;;;9.80;99.90;;;;;;5022468;28;20221;-83
2021/12/30 01:19:16;;;;;;;36.92;16.15;;;9.80;99.90;;;;;;5026179;28;20181;-83
2021/12/30 01:21:44;;;;;;;39.22;16.95;;;9.70;99.90;;;;;;5022997;28;20220;-83
2021/12/30 01:24:11;;;;;;;35.60;16.50;;;9.70;99.90;;;;;;5024234;28;20339;-81
2021/12/30 01:26:38;;;;;;;28.58;14.95;;;9.70;99.90;;;;;;5022843;28;20216;-81
2021/12/30 01:29:05;;;;;;;29.33;15.00;;;9.70;99.90;;;;;;5024166;28;20221;-81
2021/12/30 01:31:32;;;;;;;33.83;16.13;;;9.60;99.90;;;;;;5021263;28;20212;-81
2021/12/30 01:33:59;;;;;;;34.63;14.55;;;9.60;99.90;;;;;;5023482;28;20244;-81
2021/12/30 01:36:27;;;;;;;33.80;16.80;;;9.60;99.90;;;;;;5023994;28;20276;-82
2021/12/30 01:38:55;;;;;;;35.88;14.75;;;9.60;99.90;;;;;;5022581;28;20205;-84
2021/12/30 01:41:23;;;;;;;22.20;12.52;;;9.60;99.90;;;;;;5021899;28;20706;-83
2021/12/30 01:43:51;;;;;;;43.55;16.23;;;9.60;99.90;;;;;;5026196;28;20205;-82
2021/12/30 01:46:18;;;;;;;32.65;13.52;;;9.60;99.90;;;;;;5032616;28;20208;-83
2021/12/30 01:48:45;;;;;;;31.05;14.50;;;9.50;99.90;;;;;;5034893;28;20224;-81
2021/12/30 01:51:12;;;;;;;29.25;13.80;;;9.50;99.90;;;;;;5033473;28;20193;-83
2021/12/30 01:53:39;;;;;;;25.70;12.20;;;9.50;99.90;;;;;;5029779;28;20670;-83
2021/12/30 01:56:07;;;;;;;27.00;14.48;;;9.50;99.90;;;;;;5022664;28;20296;-82
2021/12/30 01:58:35;;;;;;;27.10;12.25;;;9.60;99.90;;;;;;5024109;28;20208;-83
2021/12/30 02:01:04;;;;;;;26.27;12.82;;;9.50;99.90;;;;;;5028549;28;20272;-81
2021/12/30 02:03:31;;;;;;;26.90;14.38;;;9.50;99.90;;;;;;5030719;28;20264;-82
2021/12/30 02:05:58;;;;;;;24.60;13.23;;;9.60;99.90;;;;;;5032254;28;20229;-82
2021/12/30 02:08:24;;;;;;;38.17;14.40;;;9.50;99.90;;;;;;5035742;28;20260;-80
2021/12/30 02:10:52;;;;;;;29.13;16.40;;;9.50;99.90;;;;;;5037361;28;20205;-82
2021/12/30 02:13:21;;;;;;;31.75;13.20;;;9.50;99.90;;;;;;5031007;28;20236;-83
2021/12/30 02:15:49;;;;;;;36.03;14.25;;;9.40;99.90;;;;;;5024052;28;20221;-83
2021/12/30 02:18:16;;;;;;;36.42;14.35;;;9.40;99.90;;;;;;5031294;28;20268;-83
2021/12/30 02:20:47;;;;;;;35.05;15.73;;;9.40;99.90;;;;;;5022894;28;20279;-83
2021/12/30 02:23:16;;;;;;;34.20;15.00;;;9.40;99.90;;;;;;5021378;28;20244;-83
2021/12/30 02:25:43;;;;;;;33.25;14.80;;;9.40;99.90;;;;;;5011510;28;20219;-83
2021/12/30 02:28:13;;;;;;;37.85;16.08;;;9.40;99.90;;;;;;5022467;28;20273;-83
2021/12/30 02:30:40;;;;;;;49.20;15.90;;;9.40;99.90;;;;;;5020650;28;20228;-83
2021/12/30 02:33:08;;;;;;;45.42;18.70;;;9.40;99.90;;;;;;5020946;28;20296;-83
2021/12/30 02:35:35;;;;;;;36.58;17.50;;;9.40;99.90;;;;;;5006437;28;20656;-83
2021/12/30 02:38:04;;;;;;;57.53;19.85;;;9.40;99.90;;;;;;5017990;28;20677;-83
2021/12/30 02:40:36;;;;;;;39.63;15.90;;;9.40;99.90;;;;;;5017002;28;20213;-82
2021/12/30 02:43:04;;;;;;;46.03;19.95;;;9.40;99.90;;;;;;5017598;28;20201;-83
2021/12/30 02:45:31;;;;;;;38.83;17.92;;;9.40;99.90;;;;;;5018749;28;20217;-83
2021/12/30 02:47:58;;;;;;;41.25;17.83;;;9.40;99.90;;;;;;5018507;28;20224;-83
2021/12/30 02:50:25;;;;;;;44.42;19.15;;;9.40;99.90;;;;;;5018944;28;20192;-83
2021/12/30 02:52:51;;;;;;;41.03;18.23;;;9.40;99.90;;;;;;5018471;28;20650;-83
2021/12/30 02:55:20;;;;;;;53.17;19.23;;;9.40;99.90;;;;;;5019416;28;20255;-82
2021/12/30 02:57:46;;;;;;;54.13;17.73;;;9.40;99.90;;;;;;5020173;28;20224;-83
2021/12/30 03:00:14;;;;;;;36.63;18.05;;;9.50;99.90;;;;;;5023263;28;20669;-83
2021/12/30 03:02:42;;;;;;;33.38;19.55;;;9.50;99.90;;;;;;5018031;28;20205;-83
2021/12/30 03:05:10;;;;;;;54.53;20.63;;;9.40;99.90;;;;;;5032612;28;20235;-83
2021/12/30 03:07:37;;;;;;;38.05;17.02;;;9.40;99.90;;;;;;5020911;28;20239;-83
2021/12/30 03:10:06;;;;;;;34.65;16.80;;;9.40;99.90;;;;;;5017439;28;20205;-83
2021/12/30 03:12:34;;;;;;;36.33;16.42;;;9.50;99.90;;;;;;5021391;28;20212;-83
2021/12/30 03:15:01;;;;;;;34.17;17.02;;;9.40;99.90;;;;;;5026281;28;20292;-83
2021/12/30 03:17:28;;;;;;;36.13;18.42;;;9.50;99.90;;;;;;5019044;28;20320;-83
2021/12/30 03:19:58;;;;;;;51.10;19.42;;;9.50;99.90;;;;;;5020254;28;20308;-83
2021/12/30 03:22:25;;;;;;;43.42;21.35;;;9.50;99.90;;;;;;5020025;28;20616;-83
2021/12/30 03:24:53;;;;;;;41.75;22.23;;;9.50;99.90;;;;;;5021407;28;20344;-83
2021/12/30 03:27:20;;;;;;;42.42;21.67;;;9.40;99.90;;;;;;5022410;28;20331;-83
2021/12/30 03:29:48;;;;;;;42.35;18.48;;;9.40;99.90;;;;;;5020360;28;20682;-83
2021/12/30 03:32:15;;;;;;;37.63;18.52;;;9.40;99.90;;;;;;5031485;28;20240;-83
2021/12/30 03:34:41;;;;;;;52.00;15.98;;;9.30;99.90;;;;;;5020230;28;20268;-82
2021/12/30 03:37:08;;;;;;;41.10;15.75;;;9.30;99.90;;;;;;5017976;28;20299;-82
2021/12/30 03:39:36;;;;;;;45.63;15.27;;;9.30;99.90;;;;;;5025654;28;20603;-83
2021/12/30 03:42:03;;;;;;;44.17;15.50;;;9.30;99.90;;;;;;5017442;28;20255;-83
2021/12/30 03:44:29;;;;;;;27.00;13.00;;;9.30;99.90;;;;;;5020026;28;20228;-83
2021/12/30 03:46:58;;;;;;;51.47;14.63;;;9.30;99.90;;;;;;5018909;28;20588;-83
2021/12/30 03:49:25;;;;;;;37.28;11.60;;;9.30;99.90;;;;;;5025192;28;20244;-82
2021/12/30 03:51:53;;;;;;;38.50;14.32;;;9.20;99.90;;;;;;5018870;28;20209;-83
2021/12/30 03:54:20;;;;;;;30.80;11.45;;;9.30;99.90;;;;;;5018603;28;20229;-83
2021/12/30 03:56:47;;;;;;;30.23;10.77;;;9.20;99.90;;;;;;5024991;28;20272;-83
2021/12/30 03:59:15;;;;;;;37.60;11.20;;;9.40;99.90;;;;;;5019003;28;20705;-83
2021/12/30 04:01:42;;;;;;;29.98;10.85;;;9.30;99.90;;;;;;5006392;28;20209;-83
2021/12/30 04:04:10;;;;;;;38.70;13.20;;;9.20;99.90;;;;;;5024021;28;20303;-83
2021/12/30 04:06:37;;;;;;;46.13;10.55;;;9.20;99.90;;;;;;5019134;28;20209;-83
2021/12/30 04:09:06;;;;;;;39.47;10.05;;;9.30;99.90;;;;;;5019167;28;20249;-83
2021/12/30 04:11:34;;;;;;;37.85;11.93;;;9.30;99.90;;;;;;5018224;28;20212;-83
2021/12/30 04:14:02;;;;;;;27.48;9.68;;;9.30;99.90;;;;;;5018247;28;20207;-83
2021/12/30 04:16:29;;;;;;;37.30;9.70;;;9.30;99.90;;;;;;5018111;28;20277;-82
2021/12/30 04:18:57;;;;;;;34.97;8.93;;;9.20;99.90;;;;;;5023201;28;20215;-83
2021/12/30 04:21:25;;;;;;;30.30;10.38;;;9.20;99.90;;;;;;5032326;28;20255;-83
2021/12/30 04:23:52;;;;;;;38.15;8.75;;;9.20;99.90;;;;;;5018973;28;20821;-83
2021/12/30 04:26:19;;;;;;;39.20;10.75;;;9.20;99.90;;;;;;5019625;28;20287;-83
2021/12/30 04:28:46;;;;;;;43.35;9.20;;;9.20;99.90;;;;;;5024802;28;20383;-83
2021/12/30 04:31:13;;;;;;;36.10;11.35;;;9.20;99.90;;;;;;5024120;28;20231;-83
2021/12/30 04:33:41;;;;;;;44.13;9.95;;;9.20;99.90;;;;;;5027088;28;20229;-82
2021/12/30 04:36:08;;;;;;;47.00;13.25;;;9.10;99.90;;;;;;5027925;28;20259;-82
2021/12/30 04:38:37;;;;;;;51.33;11.77;;;9.10;99.90;;;;;;5027334;28;20234;-81
2021/12/30 04:41:05;;;;;;;31.77;11.52;;;9.10;99.90;;;;;;5026810;28;20296;-80
2021/12/30 04:43:32;;;;;;;30.58;11.48;;;9.20;99.90;;;;;;5030321;28;20243;-81
2021/12/30 04:46:00;;;;;;;39.90;14.40;;;9.20;99.90;;;;;;5029439;28;20260;-81
2021/12/30 04:48:28;;;;;;;48.15;14.40;;;9.20;99.90;;;;;;5047952;28;20220;-82
2021/12/30 04:50:55;;;;;;;30.80;11.95;;;9.30;99.90;;;;;;5036862;28;20826;-81
2021/12/30 04:53:22;;;;;;;35.40;15.65;;;9.30;99.90;;;;;;5030176;28;20201;-81
2021/12/30 04:55:51;;;;;;;37.67;14.15;;;9.30;99.90;;;;;;5021340;28;20233;-81
2021/12/30 04:58:49;;;;;;;65.80;16.02;;;9.40;99.90;;;;;;5020983;28;20205;-81
2021/12/30 05:01:16;;;;;;;52.70;18.45;;;9.40;99.90;;;;;;5019694;28;20296;-81
2021/12/30 05:03:45;;;;;;;38.28;16.13;;;9.40;99.90;;;;;;5021432;28;20288;-81
2021/12/30 05:06:12;;;;;;;45.55;18.13;;;9.50;99.90;;;;;;5022046;28;20229;-81
2021/12/30 05:08:39;;;;;;;52.70;18.80;;;9.40;99.90;;;;;;5022355;28;20317;-81
2021/12/30 05:11:07;;;;;;;45.75;17.95;;;9.50;99.90;;;;;;5021087;28;20324;-81
2021/12/30 05:13:34;;;;;;;47.40;18.10;;;9.50;99.90;;;;;;5021988;28;20268;-81
2021/12/30 05:16:01;;;;;;;62.08;17.90;;;9.50;99.90;;;;;;5021096;28;20225;-81
2021/12/30 05:18:32;;;;;;;43.90;16.67;;;9.50;99.90;;;;;;5022871;28;20224;-81
2021/12/30 05:20:59;;;;;;;45.88;16.75;;;9.50;99.90;;;;;;5025149;28;20248;-81
2021/12/30 05:23:26;;;;;;;41.33;18.63;;;9.60;99.90;;;;;;5022910;28;20733;-82
2021/12/30 05:25:53;;;;;;;52.75;20.20;;;9.50;99.90;;;;;;5022621;28;20311;-81
2021/12/30 05:28:22;;;;;;;53.55;20.67;;;9.60;99.90;;;;;;5022499;28;20205;-81
2021/12/30 05:30:49;;;;;;;41.45;17.40;;;9.60;99.90;;;;;;5022658;28;20654;-82
2021/12/30 05:33:16;;;;;;;36.75;18.98;;;9.60;99.90;;;;;;5021898;28;20264;-81
2021/12/30 05:35:43;;;;;;;50.60;19.15;;;9.60;99.90;;;;;;5029895;28;20307;-81
2021/12/30 05:38:10;;;;;;;55.65;19.50;;;9.70;99.90;;;;;;5029292;28;20250;-81
2021/12/30 05:40:37;;;;;;;51.25;19.67;;;9.70;99.90;;;;;;5021911;28;20697;-81
2021/12/30 05:43:04;;;;;;;56.47;19.58;;;9.70;99.90;;;;;;5021284;28;20201;-81
2021/12/30 05:45:32;;;;;;;42.97;21.25;;;9.80;99.90;;;;;;5020603;28;20782;-81
2021/12/30 05:47:59;;;;;;;44.97;22.02;;;9.80;99.90;;;;;;5020349;28;20213;-82
2021/12/30 05:50:28;;;;;;;60.97;19.50;;;9.90;99.90;;;;;;5020963;28;20248;-82
2021/12/30 05:52:55;;;;;;;50.78;19.75;;;9.90;99.90;;;;;;5026188;28;20232;-82
2021/12/30 05:55:22;;;;;;;50.67;20.15;;;9.90;99.90;;;;;;5023626;28;20237;-82
2021/12/30 05:57:52;;;;;;;45.00;20.95;;;9.90;99.90;;;;;;5021982;28;20664;-82
2021/12/30 06:00:20;;;;;;;50.15;19.92;;;9.90;99.90;;;;;;5019838;28;20277;-82
2021/12/30 06:02:49;;;;;;;49.75;19.15;;;9.90;99.90;;;;;;5020858;28;20566;-81
2021/12/30 06:05:16;;;;;;;59.35;19.95;;;10.00;99.90;;;;;;5020410;28;20235;-82
2021/12/30 06:07:43;;;;;;;53.88;23.17;;;10.00;99.90;;;;;;5020247;28;20204;-82
2021/12/30 06:10:11;;;;;;;47.45;19.38;;;10.10;99.90;;;;;;5019453;28;20323;-82
2021/12/30 06:12:38;;;;;;;48.17;20.23;;;10.10;99.90;;;;;;5029477;28;20189;-82
2021/12/30 06:15:05;;;;;;;47.45;22.45;;;10.00;99.90;;;;;;5038690;28;20298;-81
2021/12/30 06:17:33;;;;;;;57.47;22.50;;;10.10;99.90;;;;;;5028716;28;20284;-81
2021/12/30 06:20:02;;;;;;;40.42;19.27;;;10.10;99.90;;;;;;5022340;28;20208;-82
2021/12/30 06:22:29;;;;;;;44.55;19.77;;;10.10;99.90;;;;;;5020775;28;20218;-82
2021/12/30 06:24:56;;;;;;;42.35;20.08;;;10.00;99.90;;;;;;5020794;28;20227;-82
2021/12/30 06:27:22;;;;;;;44.17;20.25;;;10.10;99.90;;;;;;5021119;28;20241;-82
2021/12/30 06:29:49;;;;;;;48.38;22.80;;;10.10;99.90;;;;;;5026645;28;20319;-83
2021/12/30 06:32:16;;;;;;;41.47;20.90;;;10.20;99.90;;;;;;5019835;28;20296;-83
2021/12/30 06:34:43;;;;;;;53.72;18.90;;;10.30;99.90;;;;;;5020019;28;20225;-83
2021/12/30 06:37:12;;;;;;;50.15;20.75;;;10.30;99.90;;;;;;5019859;28;20204;-83
2021/12/30 06:39:39;;;;;;;53.75;21.77;;;10.30;99.90;;;;;;5018797;28;20194;-84
2021/12/30 06:42:06;;;;;;;51.30;20.25;;;10.30;99.90;;;;;;5019613;28;20238;-82
2021/12/30 06:44:33;;;;;;;61.53;24.40;;;10.30;99.90;;;;;;5019057;28;20233;-82
2021/12/30 06:47:01;;;;;;;47.35;21.73;;;10.30;99.90;;;;;;5019896;28;20236;-82
2021/12/30 06:49:35;;;;;;;49.83;21.70;;;10.40;99.90;;;;;;5019427;28;20237;-82
2021/12/30 06:52:02;;;;;;;48.47;21.30;;;10.40;99.90;;;;;;5022784;28;20201;-82
2021/12/30 06:54:30;;;;;;;52.13;23.42;;;10.50;99.90;;;;;;5027855;28;20317;-82
2021/12/30 06:56:59;;;;;;;50.00;23.05;;;10.50;99.90;;;;;;5021595;28;20204;-82
2021/12/30 06:59:26;;;;;;;37.20;20.92;;;10.50;99.90;;;;;;5020148;28;20220;-83
2021/12/30 07:01:56;;;;;;;65.15;23.45;;;10.60;99.90;;;;;;5019471;28;20212;-83
2021/12/30 07:04:23;;;;;;;62.17;23.08;;;10.60;99.90;;;;;;5031752;28;20220;-83
2021/12/30 07:06:50;;;;;;;43.80;19.95;;;10.70;99.90;;;;;;5018389;28;20310;-83
2021/12/30 07:09:16;;;;;;;48.67;22.48;;;10.70;99.90;;;;;;5018585;28;20284;-83
2021/12/30 07:11:48;;;;;;;53.42;30.27;;;10.80;99.90;;;;;;5018739;28;20216;-83
2021/12/30 07:14:16;;;;;;;54.78;25.33;;;10.70;99.90;;;;;;5018819;28;20755;-83
2021/12/30 07:16:42;;;;;;;52.78;24.25;;;10.70;99.90;;;;;;5022095;28;20320;-83
2021/12/30 07:19:09;;;;;;;67.07;23.27;;;10.80;99.90;;;;;;5019225;28;20221;-83
2021/12/30 07:21:36;;;;;;;42.88;23.25;;;10.80;99.90;;;;;;5017804;28;20252;-82
2021/12/30 07:24:07;;;;;;;43.85;20.98;;;10.80;99.90;;;;;;5018788;28;20197;-83
2021/12/30 07:26:34;;;;;;;57.92;21.40;;;10.90;99.90;;;;;;5020784;28;20238;-82
2021/12/30 07:29:03;;;;;;;41.47;21.35;;;10.90;99.90;;;;;;5032116;28;20201;-82
2021/12/30 07:31:31;;;;;;;44.28;22.45;;;11.00;99.90;;;;;;5032818;28;20217;-83
2021/12/30 07:33:57;;;;;;;44.97;21.58;;;11.10;99.90;;;;;;5025925;28;20234;-81
2021/12/30 07:36:24;;;;;;;47.47;23.60;;;11.10;99.90;;;;;;5034937;28;20223;-83
2021/12/30 07:38:51;;;;;;;47.67;21.88;;;11.20;99.90;;;;;;5037723;28;20205;-82
2021/12/30 07:41:19;;;;;;;51.10;21.63;;;11.20;99.90;;;;;;5037577;28;20193;-82
2021/12/30 07:43:46;;;;;;;46.45;22.77;;;11.30;99.90;;;;;;5038109;28;20237;-82
2021/12/30 07:46:14;;;;;;;47.85;20.00;;;11.30;99.90;;;;;;5037807;28;20242;-83
2021/12/30 07:48:42;;;;;;;55.30;22.83;;;11.30;99.90;;;;;;5038105;28;20206;-82
2021/12/30 07:51:08;;;;;;;52.85;23.35;;;11.20;99.90;;;;;;5038033;28;20202;-83
2021/12/30 07:53:37;;;;;;;41.15;21.48;;;11.20;99.90;;;;;;5038244;28;20225;-83
2021/12/30 07:56:04;;;;;;;45.25;20.70;;;11.10;99.90;;;;;;5037671;28;20216;-83
2021/12/30 07:58:31;;;;;;;45.08;21.85;;;11.20;99.90;;;;;;5037654;28;20179;-82
2021/12/30 08:00:58;;;;;;;60.92;20.40;;;11.20;99.90;;;;;;5037468;28;20191;-84
2021/12/30 08:03:26;;;;;;;54.13;20.33;;;11.30;99.90;;;;;;5037655;28;20193;-83
2021/12/30 08:05:54;;;;;;;51.50;20.92;;;11.20;99.90;;;;;;5037397;28;20238;-82
2021/12/30 08:08:21;;;;;;;49.58;22.15;;;11.20;99.90;;;;;;5037626;28;20229;-83
2021/12/30 08:10:48;;;;;;;53.25;20.95;;;11.20;99.90;;;;;;5033339;28;20254;-82
2021/12/30 08:13:14;;;;;;;54.03;21.45;;;11.20;99.90;;;;;;5020257;28;20297;-82
2021/12/30 08:15:42;;;;;;;47.80;19.67;;;11.30;99.90;;;;;;5019850;28;20321;-82
2021/12/30 08:18:09;;;;;;;66.20;22.20;;;11.30;99.90;;;;;;5019311;28;20203;-82
2021/12/30 08:20:38;;;;;;;50.85;21.77;;;11.30;99.90;;;;;;5027779;28;20206;-82
2021/12/30 08:23:05;;;;;;;67.13;23.67;;;11.40;99.90;;;;;;5019908;28;20213;-82
2021/12/30 08:25:32;;;;;;;47.58;23.90;;;11.40;99.90;;;;;;5018376;28;20233;-82
2021/12/30 08:27:58;;;;;;;43.83;23.10;;;11.50;99.90;;;;;;5020913;28;20207;-82
2021/12/30 08:30:26;;;;;;;45.10;19.95;;;11.60;99.90;;;;;;5019465;28;20226;-82
2021/12/30 08:32:54;;;;;;;43.53;19.35;;;11.60;99.90;;;;;;5020312;28;20241;-83
2021/12/30 08:35:21;;;;;;;44.75;21.63;;;11.70;99.90;;;;;;5019944;28;20239;-82
2021/12/30 08:37:51;;;;;;;36.70;19.77;;;11.60;99.90;;;;;;5038145;28;20202;-82
2021/12/30 08:40:19;;;;;;;57.33;22.65;;;11.50;99.90;;;;;;5023849;28;20207;-82
2021/12/30 08:42:46;;;;;;;53.28;23.45;;;11.40;99.90;;;;;;5023337;28;20231;-82
2021/12/30 08:45:14;;;;;;;60.25;24.73;;;11.40;99.90;;;;;;5027001;28;20237;-83
2021/12/30 08:47:41;;;;;;;40.70;20.75;;;11.30;99.90;;;;;;5022756;28;20292;-83
2021/12/30 08:50:13;;;;;;;53.95;23.15;;;11.40;99.90;;;;;;5029340;28;20280;-83
2021/12/30 08:52:43;;;;;;;60.22;24.80;;;11.40;99.90;;;;;;5018558;28;20239;-83
2021/12/30 08:55:14;;;;;;;63.85;25.23;;;11.40;99.90;;;;;;5018442;28;20247;-83
2021/12/30 08:57:42;;;;;;;51.58;23.75;;;11.50;99.90;;;;;;5025171;28;20206;-83
2021/12/30 09:00:13;;;;;;;39.25;22.95;;;11.50;99.90;;;;;;5020999;28;20207;-82
2021/12/30 09:02:41;;;;;;;47.90;22.55;;;11.60;99.90;;;;;;5018742;28;20276;-82
2021/12/30 09:05:09;;;;;;;42.58;22.25;;;11.60;99.90;;;;;;5019726;28;20251;-82
2021/12/30 09:07:36;;;;;;;40.90;21.35;;;11.70;99.90;;;;;;5027164;28;20300;-82
2021/12/30 09:10:04;;;;;;;35.58;20.42;;;11.70;99.90;;;;;;5020453;28;20317;-82
2021/12/30 09:12:32;;;;;;;40.80;22.10;;;11.80;99.90;;;;;;5027386;28;20299;-82
2021/12/30 09:14:59;;;;;;;42.80;22.65;;;11.80;99.90;;;;;;5019221;28;20729;-82
2021/12/30 09:17:26;;;;;;;34.17;18.52;;;11.80;99.90;;;;;;5019249;28;20214;-82
2021/12/30 09:19:53;;;;;;;36.88;18.70;;;11.90;99.90;;;;;;5025996;28;20626;-82
2021/12/30 09:22:20;;;;;;;29.95;17.30;;;11.80;99.90;;;;;;5034541;28;20211;-83
2021/12/30 09:24:47;;;;;;;30.67;16.75;;;11.90;99.90;;;;;;5027790;28;20337;-82
2021/12/30 09:27:14;;;;;;;34.65;18.15;;;11.90;99.90;;;;;;5021961;28;20195;-82
2021/12/30 09:29:42;;;;;;;33.28;17.45;;;12.00;99.90;;;;;;5026230;28;20211;-83
2021/12/30 09:32:09;;;;;;;39.47;18.15;;;12.00;99.90;;;;;;5024079;28;20259;-82
2021/12/30 09:34:36;;;;;;;29.80;15.15;;;12.00;99.90;;;;;;5024838;28;20326;-83
2021/12/30 09:37:08;;;;;;;21.73;14.75;;;12.10;99.90;;;;;;5023915;28;20272;-83
2021/12/30 09:39:35;;;;;;;32.08;16.33;;;12.10;99.90;;;;;;5029818;28;20207;-83
2021/12/30 09:42:03;;;;;;;25.10;15.55;;;12.10;99.90;;;;;;5025130;28;20210;-83
2021/12/30 09:44:30;;;;;;;25.65;14.95;;;12.20;99.90;;;;;;5022902;28;20262;-83
2021/12/30 09:46:58;;;;;;;24.90;14.27;;;12.20;99.90;;;;;;5023153;28;20273;-83
2021/12/30 09:49:25;;;;;;;33.13;15.85;;;12.20;99.90;;;;;;5022906;28;20197;-82
2021/12/30 09:51:53;;;;;;;29.67;14.98;;;12.20;99.90;;;;;;5027441;28;20719;-83
2021/12/30 09:54:20;;;;;;;26.05;13.65;;;12.30;99.90;;;;;;5024588;28;20228;-83
2021/12/30 09:56:47;;;;;;;30.02;14.85;;;12.30;99.90;;;;;;5023716;28;20200;-81
2021/12/30 09:59:14;;;;;;;27.65;13.75;;;12.30;99.90;;;;;;5025498;28;20272;-82
2021/12/30 10:01:42;;;;;;;24.60;12.98;;;12.30;99.90;;;;;;5024503;28;20270;-82
2021/12/30 10:04:13;;;;;;;18.08;11.30;;;12.30;99.90;;;;;;5024965;28;20288;-83
2021/12/30 10:06:44;;;;;;;25.60;13.23;;;12.30;99.90;;;;;;5023426;28;20232;-83
2021/12/30 10:09:13;;;;;;;24.65;11.13;;;12.40;99.90;;;;;;5028783;28;20207;-83
2021/12/30 10:11:48;;;;;;;15.73;10.18;;;12.40;99.90;;;;;;5029559;28;20251;-82
2021/12/30 10:14:28;;;;;;;25.48;12.88;;;12.40;99.90;;;;;;5031154;28;20226;-83
2021/12/30 10:17:28;;;;;;;17.98;10.13;;;12.40;99.90;;;;;;5031300;28;20212;-81
2021/12/30 10:20:16;;;;;;;14.00;9.25;;;12.50;99.90;;;;;;4978638;28;20214;-83
2021/12/30 10:22:43;;;;;;;13.57;9.45;;;12.50;99.90;;;;;;5029090;28;20272;-83
2021/12/30 10:25:28;;;;;;;15.68;8.68;;;12.50;99.90;;;;;;5037637;28;20232;-83
2021/12/30 10:27:56;;;;;;;14.63;9.23;;;12.50;99.90;;;;;;5037731;28;20231;-82
2021/12/30 10:30:33;;;;;;;15.48;8.98;;;12.50;99.90;;;;;;5036829;28;20235;-83
2021/12/30 10:33:14;;;;;;;14.85;8.60;;;12.50;99.90;;;;;;5043680;28;20200;-83
2021/12/30 10:35:43;;;;;;;11.60;8.10;;;12.50;99.90;;;;;;5037507;28;20279;-82
2021/12/30 10:38:11;;;;;;;12.25;7.00;;;12.50;99.90;;;;;;5037775;28;20211;-82
2021/12/30 10:40:41;;;;;;;9.07;6.88;;;12.50;99.90;;;;;;5037107;28;20181;-82
2021/12/30 10:43:25;;;;;;;9.10;6.05;;;12.50;99.90;;;;;;5038517;28;20243;-83
2021/12/30 10:46:20;;;;;;;9.65;5.80;;;12.60;99.90;;;;;;5030832;28;20228;-82
2021/12/30 10:48:53;;;;;;;9.93;6.97;;;12.60;99.90;;;;;;4999146;28;20264;-82
2021/12/30 10:51:24;;;;;;;8.60;5.20;;;12.60;99.90;;;;;;5045451;28;20275;-83
2021/12/30 10:53:52;;;;;;;9.35;5.40;;;12.60;99.90;;;;;;5034531;28;20223;-83
2021/12/30 10:56:25;;;;;;;9.35;5.32;;;12.60;99.90;;;;;;5025538;28;20290;-82
2021/12/30 10:58:56;;;;;;;6.78;5.18;;;12.70;99.90;;;;;;5024641;28;20199;-83
2021/12/30 11:01:24;;;;;;;8.48;6.15;;;12.60;99.90;;;;;;5028660;28;20669;-83
2021/12/30 11:03:58;;;;;;;9.05;6.25;;;12.70;99.90;;;;;;5027512;28;20213;-81
2021/12/30 11:06:28;;;;;;;6.90;6.20;;;12.70;99.90;;;;;;5022627;28;20206;-82
2021/12/30 11:09:06;;;;;;;11.30;5.40;;;12.70;99.90;;;;;;5023704;28;20214;-83
2021/12/30 11:11:34;;;;;;;7.55;5.90;;;12.70;99.90;;;;;;5022342;28;20276;-81
2021/12/30 11:14:03;;;;;;;6.50;5.28;;;12.80;99.90;;;;;;5022533;28;20191;-82
2021/12/30 11:16:31;;;;;;;8.02;6.30;;;12.70;99.90;;;;;;5029014;28;20260;-83
2021/12/30 11:18:58;;;;;;;10.00;7.38;;;12.80;99.90;;;;;;5021665;28;20215;-82
2021/12/30 11:21:41;;;;;;;7.10;6.40;;;12.80;99.90;;;;;;5020422;28;20235;-83
2021/12/30 11:24:09;;;;;;;8.20;6.38;;;12.80;99.90;;;;;;5029251;28;20571;-82
2021/12/30 11:26:38;;;;;;;7.57;6.18;;;12.80;99.90;;;;;;5023572;28;20254;-84
2021/12/30 11:29:06;;;;;;;9.07;6.25;;;12.80;99.90;;;;;;5029950;28;20667;-83
2021/12/30 11:31:35;;;;;;;6.65;5.70;;;12.80;99.90;;;;;;5021578;28;20595;-84
2021/12/30 11:34:02;;;;;;;7.60;6.30;;;12.90;99.90;;;;;;5022907;28;20204;-82
2021/12/30 11:36:30;;;;;;;7.25;6.20;;;12.90;99.90;;;;;;5030685;28;20227;-83
2021/12/30 11:38:59;;;;;;;6.30;5.70;;;12.90;99.90;;;;;;5023293;28;20216;-83
2021/12/30 11:41:28;;;;;;;6.80;6.20;;;12.90;99.90;;;;;;5023226;28;20201;-84
2021/12/30 11:43:55;;;;;;;8.43;7.63;;;13.00;99.90;;;;;;5021582;28;20263;-81
2021/12/30 11:46:43;;;;;;;7.75;6.25;;;13.00;99.90;;;;;;5031110;28;20330;-83
2021/12/30 11:49:14;;;;;;;6.63;5.93;;;13.00;99.90;;;;;;5027543;28;20340;-83
2021/12/30 11:51:44;;;;;;;6.95;5.95;;;13.10;99.90;;;;;;5014546;28;20220;-83
2021/12/30 11:54:36;;;;;;;5.53;4.57;;;13.00;99.90;;;;;;5023983;28;20201;-84
2021/12/30 11:57:29;;;;;;;7.20;6.50;;;13.10;99.90;;;;;;5028296;28;20236;-83
2021/12/30 11:59:57;;;;;;;7.10;5.95;;;13.10;99.90;;;;;;5018198;28;20203;-83
2021/12/30 12:02:32;;;;;;;11.13;7.10;;;13.10;99.90;;;;;;5021089;28;20215;-84
2021/12/30 12:04:59;;;;;;;12.15;7.30;;;13.10;99.90;;;;;;5024614;28;20225;-83
2021/12/30 12:07:26;;;;;;;15.05;8.60;;;13.10;99.90;;;;;;5023761;28;20209;-83
2021/12/30 12:09:54;;;;;;;8.45;7.55;;;13.10;99.90;;;;;;5028938;28;20233;-83
2021/12/30 12:12:35;;;;;;;9.02;7.63;;;13.10;99.90;;;;;;5027753;28;20248;-83
2021/12/30 12:15:04;;;;;;;10.55;9.45;;;13.20;99.90;;;;;;5028548;28;20252;-83
2021/12/30 12:17:35;;;;;;;9.25;7.60;;;13.10;99.90;;;;;;5027932;28;20200;-83
2021/12/30 12:20:15;;;;;;;9.98;8.70;;;13.10;99.90;;;;;;5024038;28;20571;-82
2021/12/30 12:22:42;;;;;;;12.52;10.65;;;13.10;99.90;;;;;;5020062;28;20284;-81
2021/12/30 12:25:13;;;;;;;11.43;10.32;;;13.10;99.90;;;;;;5025065;28;20315;-83
2021/12/30 12:27:41;;;;;;;9.52;8.63;;;13.10;99.90;;;;;;5024044;28;20287;-83
2021/12/30 12:30:22;;;;;;;10.75;9.73;;;13.20;99.90;;;;;;5023228;28;20296;-83
2021/12/30 12:32:49;;;;;;;9.90;8.90;;;13.20;99.90;;;;;;5022495;28;20239;-83
2021/12/30 12:35:32;;;;;;;11.23;9.30;;;13.10;99.90;;;;;;5020879;28;20221;-83
2021/12/30 12:38:02;;;;;;;11.32;9.75;;;13.20;99.90;;;;;;5011059;28;20205;-83
2021/12/30 12:40:37;;;;;;;11.40;9.13;;;13.20;99.90;;;;;;5023726;28;20200;-82